Time;durP1;ratioP1;P1;durP2;ratioP2;P2;SDS_P1;SDS_P2;PMS_P1;PMS_P2;Temp;Humidity;BMP_temperature;BMP_pressure;BME280_temperature;BME280_humidity;BME280_pressure;Samples;Min_cycle;Max_cycle;Signal;HPM_P1;HPM_P2
2022/11/15 00:01:29;;;;;;;3.35;1.23;;;12.50;77.30;;;;;;5052269;28;20127;-72
2022/11/15 00:04:32;;;;;;;4.63;1.17;;;12.50;77.20;;;;;;5046733;28;20094;-74
2022/11/15 00:07:36;;;;;;;6.68;1.25;;;12.50;77.20;;;;;;5050286;28;20059;-73
2022/11/15 00:10:40;;;;;;;2.47;1.00;;;12.60;77.40;;;;;;5056750;28;20055;-73
2022/11/15 00:13:43;;;;;;;;;;;12.50;77.20;;;;;;5045520;28;20033;-73
2022/11/15 00:16:47;;;;;;;2.53;1.10;;;12.60;77.40;;;;;;5057786;28;20398;-74
2022/11/15 00:19:50;;;;;;;9.43;1.27;;;12.60;77.30;;;;;;5048076;28;20047;-74
2022/11/15 00:22:53;;;;;;;3.42;1.30;;;12.60;77.30;;;;;;5051023;28;20123;-74
2022/11/15 00:25:58;;;;;;;6.82;2.20;;;12.70;77.50;;;;;;5049942;28;20183;-74
2022/11/15 00:29:02;;;;;;;2.55;1.27;;;12.70;77.50;;;;;;5044755;28;20048;-72
2022/11/15 00:32:05;;;;;;;3.00;0.90;;;12.80;77.60;;;;;;5045563;28;20040;-72
2022/11/15 00:35:08;;;;;;;4.78;1.13;;;12.80;77.60;;;;;;5054627;28;20466;-75
2022/11/15 00:38:11;;;;;;;;;;;12.80;77.50;;;;;;5050327;28;20039;-72
2022/11/15 00:41:15;;;;;;;7.13;1.02;;;12.90;77.70;;;;;;5045946;28;19915;-74
2022/11/15 00:44:18;;;;;;;3.45;0.90;;;12.90;77.50;;;;;;5045000;28;20466;-76
2022/11/15 00:47:21;;;;;;;3.03;1.27;;;13.00;77.70;;;;;;5045583;28;20052;-74
2022/11/15 00:50:24;;;;;;;6.20;1.10;;;13.00;77.70;;;;;;5053429;28;20071;-72
2022/11/15 00:53:28;;;;;;;;;;;13.00;77.80;;;;;;5050394;28;20092;-75
2022/11/15 00:56:32;;;;;;;4.18;0.95;;;13.10;77.90;;;;;;5045277;28;19957;-76
2022/11/15 00:59:35;;;;;;;5.80;1.08;;;13.10;77.80;;;;;;5043913;28;20558;-73
2022/11/15 01:02:38;;;;;;;3.53;1.25;;;13.10;77.80;;;;;;5055869;28;20098;-74
2022/11/15 01:05:42;;;;;;;6.88;1.30;;;13.10;77.90;;;;;;5045181;28;20068;-73
2022/11/15 01:08:44;;;;;;;5.10;2.13;;;13.20;78.10;;;;;;5044850;28;20132;-75
2022/11/15 01:11:48;;;;;;;7.88;1.50;;;13.20;78.10;;;;;;5044525;28;20514;-76
2022/11/15 01:14:52;;;;;;;6.00;1.42;;;13.20;78.10;;;;;;5048245;28;20035;-75
2022/11/15 01:17:55;;;;;;;4.57;0.93;;;13.30;78.30;;;;;;5051376;28;20040;-72
2022/11/15 01:20:58;;;;;;;4.55;0.88;;;13.30;78.30;;;;;;5056793;28;20082;-72
2022/11/15 01:24:02;;;;;;;7.47;1.23;;;13.30;78.30;;;;;;5055379;28;20103;-74
2022/11/15 01:27:06;;;;;;;3.80;1.00;;;13.30;78.30;;;;;;5047610;28;20075;-73
2022/11/15 01:30:10;;;;;;;4.95;1.00;;;13.30;78.30;;;;;;5053493;28;20090;-73
2022/11/15 01:33:13;;;;;;;4.32;1.17;;;13.40;78.40;;;;;;5049504;28;20443;-73
2022/11/15 01:36:21;;;;;;;4.70;1.20;;;13.40;78.40;;;;;;5049678;28;20063;-76
2022/11/15 01:39:25;;;;;;;3.33;1.20;;;13.40;78.40;;;;;;5052072;28;20111;-74
2022/11/15 01:42:28;;;;;;;3.85;1.27;;;13.40;78.40;;;;;;5042927;28;20035;-72
2022/11/15 01:45:31;;;;;;;;;;;13.40;78.40;;;;;;5051659;28;20142;-78
2022/11/15 01:48:35;;;;;;;6.55;1.50;;;13.40;78.30;;;;;;5046328;28;20002;-77
2022/11/15 01:51:39;;;;;;;5.63;1.42;;;13.40;78.30;;;;;;5048415;28;20507;-76
2022/11/15 01:54:43;;;;;;;6.10;1.00;;;13.50;78.50;;;;;;5045780;28;20622;-75
2022/11/15 01:57:50;;;;;;;3.53;1.92;;;13.40;78.40;;;;;;5045241;28;20036;-75
2022/11/15 02:00:53;;;;;;;5.68;0.98;;;13.50;78.60;;;;;;5045744;28;20335;-73
2022/11/15 02:04:01;;;;;;;4.43;1.50;;;13.50;78.60;;;;;;5053123;28;20060;-74
2022/11/15 02:07:06;;;;;;;3.28;1.20;;;13.50;78.70;;;;;;5055604;28;20111;-77
2022/11/15 02:10:19;;;;;;;4.32;1.00;;;13.50;79.00;;;;;;5044150;28;20044;-77
2022/11/15 02:13:23;;;;;;;5.25;0.90;;;13.50;78.80;;;;;;5051846;28;20055;-75
2022/11/15 02:16:45;;;;;;;4.13;1.08;;;13.60;78.90;;;;;;5045662;28;20179;-75
2022/11/15 02:20:35;;;;;;;5.50;1.08;;;13.60;79.00;;;;;;5044130;28;20094;-73
2022/11/15 02:23:41;;;;;;;4.68;0.70;;;13.60;79.00;;;;;;5024269;28;20403;-74
2022/11/15 02:27:22;;;;;;;3.55;1.38;;;13.60;78.80;;;;;;5043498;28;20106;-76
2022/11/15 02:30:37;;;;;;;4.03;0.93;;;13.70;79.10;;;;;;5049973;28;20037;-73
2022/11/15 02:33:57;;;;;;;3.92;0.82;;;13.70;79.00;;;;;;5058784;28;20296;-78
2022/11/15 02:37:46;;;;;;;3.00;1.13;;;13.70;79.00;;;;;;5047525;28;20108;-74
2022/11/15 02:40:58;;;;;;;3.63;0.75;;;13.70;79.10;;;;;;5020319;28;20079;-76
2022/11/15 02:44:23;;;;;;;3.47;1.00;;;13.70;79.00;;;;;;5047404;28;20048;-73
2022/11/15 02:47:32;;;;;;;2.92;0.75;;;13.70;79.10;;;;;;5022500;22;20180;-88
2022/11/15 02:50:35;;;;;;;3.88;0.90;;;13.70;79.10;;;;;;5009115;28;20040;-88
2022/11/15 02:53:39;;;;;;;3.05;0.70;;;13.80;79.30;;;;;;4997930;28;20053;-87
2022/11/15 02:56:45;;;;;;;3.17;0.82;;;13.80;79.30;;;;;;4990772;28;20042;-88
2022/11/15 03:00:16;;;;;;;2.95;1.15;;;13.80;79.40;;;;;;4992389;28;20040;-89
2022/11/15 03:03:25;;;;;;;2.55;0.73;;;13.80;79.40;;;;;;4995172;28;20076;-87
2022/11/15 03:07:26;;;;;;;3.38;0.80;;;13.80;79.40;;;;;;4994731;28;20052;-87
2022/11/15 03:10:36;;;;;;;3.55;0.80;;;13.80;79.50;;;;;;4971276;28;20573;-88
2022/11/15 03:14:10;;;;;;;4.13;0.70;;;13.80;79.40;;;;;;4977551;28;20263;-87
2022/11/15 03:17:37;;;;;;;1.48;0.63;;;13.90;79.70;;;;;;4990292;28;20068;-86
2022/11/15 03:20:42;;;;;;;3.15;1.08;;;13.90;79.70;;;;;;4992926;28;20053;-86
2022/11/15 03:23:48;;;;;;;4.80;1.23;;;13.90;79.70;;;;;;4992150;28;20092;-85
2022/11/15 03:26:54;;;;;;;2.58;0.88;;;13.90;79.70;;;;;;4992349;28;20061;-87
2022/11/15 03:30:04;;;;;;;3.58;0.82;;;14.00;79.90;;;;;;4994938;28;20173;-87
2022/11/15 03:33:08;;;;;;;3.10;0.80;;;14.00;80.00;;;;;;4994345;28;20046;-87
2022/11/15 03:36:11;;;;;;;1.90;0.70;;;14.00;79.90;;;;;;4995562;28;20617;-88
2022/11/15 03:39:15;;;;;;;;;;;14.10;80.10;;;;;;5013435;28;20056;-89
2022/11/15 03:42:36;;;;;;;2.22;0.80;;;14.10;80.10;;;;;;4994036;28;19916;-87
2022/11/15 03:45:51;;;;;;;3.38;0.80;;;14.10;80.00;;;;;;4990382;28;20113;-85
2022/11/15 03:49:19;;;;;;;2.95;0.80;;;14.10;80.00;;;;;;5003008;28;20053;-87
2022/11/15 03:52:23;;;;;;;1.90;0.60;;;14.10;80.10;;;;;;4972796;28;20038;-88
2022/11/15 03:55:26;;;;;;;2.20;0.60;;;14.10;80.10;;;;;;4970612;28;20033;-86
2022/11/15 03:58:30;;;;;;;;;;;14.10;80.10;;;;;;4974308;28;20142;-86
2022/11/15 04:01:33;;;;;;;1.67;0.83;;;14.10;80.10;;;;;;4989224;28;19923;-86
2022/11/15 04:04:36;;;;;;;1.27;0.77;;;14.10;80.00;;;;;;4979971;28;20138;-87
2022/11/15 04:07:39;;;;;;;2.75;0.70;;;14.10;80.10;;;;;;4970485;28;20121;-87
2022/11/15 04:10:43;;;;;;;3.72;0.80;;;14.10;80.10;;;;;;4970588;28;20116;-86
2022/11/15 04:13:46;;;;;;;2.30;0.47;;;14.10;80.20;;;;;;4969978;28;20038;-88
2022/11/15 04:16:49;;;;;;;2.28;0.47;;;14.20;80.30;;;;;;4971347;28;20050;-90
2022/11/15 04:26:37;;;;;;;1.33;0.70;;;14.20;80.30;;;;;;4970183;28;20529;-88
2022/11/15 04:29:40;;;;;;;2.35;0.50;;;14.20;80.30;;;;;;4968433;28;20097;-89
2022/11/15 04:32:43;;;;;;;1.92;0.52;;;14.20;80.30;;;;;;4969117;28;20517;-87
2022/11/15 04:37:11;;;;;;;1.55;0.80;;;14.30;80.40;;;;;;4968814;28;20038;-88
2022/11/15 04:39:10;;;;;;;1.23;0.30;;;14.30;80.40;;;;;;4984849;28;20053;-88
2022/11/15 04:42:13;;;;;;;2.78;0.52;;;14.30;80.40;;;;;;4981265;28;20042;-88
2022/11/15 04:45:16;;;;;;;0.43;0.32;;;14.30;80.30;;;;;;4969977;28;20517;-91
2022/11/15 04:48:19;;;;;;;1.20;0.50;;;14.30;80.30;;;;;;4970339;28;20054;-90
2022/11/15 04:51:22;;;;;;;1.75;0.55;;;14.30;80.30;;;;;;4970587;28;20315;-91
2022/11/15 04:54:26;;;;;;;;;;;14.30;80.30;;;;;;4969463;28;20042;-88
2022/11/15 04:57:29;;;;;;;2.23;0.30;;;14.30;80.30;;;;;;4968443;28;19917;-89
2022/11/15 05:00:32;;;;;;;0.50;0.20;;;14.30;80.20;;;;;;4968342;28;20285;-86
2022/11/15 05:06:57;;;;;;;1.20;0.30;;;14.40;80.40;;;;;;4968716;28;20061;-86
2022/11/15 05:10:00;;;;;;;2.50;0.40;;;14.40;80.40;;;;;;4986393;28;20177;-88
2022/11/15 05:13:04;;;;;;;1.50;0.40;;;14.40;80.40;;;;;;4981891;28;20045;-88
2022/11/15 05:16:07;;;;;;;1.17;0.40;;;14.40;80.40;;;;;;4969308;28;20041;-89
2022/11/15 05:19:11;;;;;;;1.40;0.38;;;14.40;80.40;;;;;;4969783;28;20069;-87
2022/11/15 05:22:14;;;;;;;1.65;0.50;;;14.40;80.40;;;;;;4968312;28;20073;-88
2022/11/15 05:25:18;;;;;;;3.30;0.30;;;14.40;80.40;;;;;;4968206;28;20093;-88
2022/11/15 05:28:21;;;;;;;3.25;0.82;;;14.40;80.50;;;;;;4976041;28;20118;-88
2022/11/15 05:31:25;;;;;;;0.35;0.20;;;14.40;80.50;;;;;;4969324;28;20554;-88
2022/11/15 05:34:28;;;;;;;0.88;0.60;;;14.40;80.60;;;;;;4972106;28;20178;-89
2022/11/15 05:37:32;;;;;;;1.00;0.30;;;14.40;80.60;;;;;;4975622;28;20445;-89
2022/11/15 05:40:35;;;;;;;1.63;0.50;;;14.40;80.60;;;;;;4973145;28;20038;-90
2022/11/15 05:43:40;;;;;;;;;;;14.40;80.70;;;;;;4972847;28;20046;-93
2022/11/15 05:46:44;;;;;;;1.35;0.40;;;14.50;80.80;;;;;;4970855;28;19929;-90
2022/11/15 05:49:50;;;;;;;1.88;0.93;;;14.50;80.70;;;;;;4983531;28;20089;-86
2022/11/15 05:52:54;;;;;;;0.68;0.65;;;14.50;80.80;;;;;;4983485;28;20104;-95
2022/11/15 05:55:58;;;;;;;2.15;0.40;;;14.50;80.80;;;;;;4983182;28;20062;-89
2022/11/15 05:59:01;;;;;;;0.80;0.40;;;14.50;80.90;;;;;;4990797;28;20473;-84
2022/11/15 06:02:05;;;;;;;1.17;0.40;;;14.60;81.00;;;;;;4983339;28;20073;-83
2022/11/15 06:05:08;;;;;;;1.02;0.40;;;14.60;81.00;;;;;;4984618;28;20457;-85
2022/11/15 06:08:11;;;;;;;1.55;0.43;;;14.60;81.00;;;;;;4984897;28;20053;-85
2022/11/15 06:11:14;;;;;;;1.45;0.50;;;14.70;81.70;;;;;;4987121;28;20042;-82
2022/11/15 06:14:17;;;;;;;;;;;14.70;81.20;;;;;;4982694;28;20045;-86
2022/11/15 06:17:21;;;;;;;0.80;0.57;;;14.70;81.10;;;;;;4986660;28;19920;-85
2022/11/15 06:20:25;;;;;;;2.22;0.45;;;14.70;81.00;;;;;;4985458;28;20049;-85
2022/11/15 06:23:32;;;;;;;1.17;0.30;;;14.80;81.20;;;;;;4985148;28;20042;-88
2022/11/15 06:26:35;;;;;;;0.90;0.90;;;14.80;81.30;;;;;;4983203;28;20617;-85
2022/11/15 06:29:38;;;;;;;1.75;0.52;;;14.80;81.30;;;;;;4986255;28;20073;-87
2022/11/15 06:32:41;;;;;;;1.02;0.57;;;14.80;81.30;;;;;;4985726;28;20540;-87
2022/11/15 06:35:44;;;;;;;1.60;0.40;;;14.80;81.30;;;;;;4986435;28;20044;-88
2022/11/15 06:38:48;;;;;;;0.95;0.50;;;14.80;81.40;;;;;;4981651;28;20053;-88
2022/11/15 06:41:51;;;;;;;0.90;0.50;;;14.80;81.40;;;;;;4975106;28;20393;-84
2022/11/15 06:44:54;;;;;;;1.98;0.82;;;14.80;81.40;;;;;;4977642;28;20097;-88
2022/11/15 06:47:58;;;;;;;3.92;0.60;;;14.80;81.40;;;;;;4982290;28;20082;-88
2022/11/15 06:51:02;;;;;;;;;;;14.80;81.40;;;;;;4992657;28;20635;-88
2022/11/15 06:54:05;;;;;;;;;;;14.80;81.40;;;;;;4988734;28;20090;-81
2022/11/15 06:57:09;;;;;;;4.97;2.58;;;14.90;81.60;;;;;;4986224;28;19924;-79
2022/11/15 07:00:12;;;;;;;2.70;1.55;;;15.00;81.70;;;;;;4983134;28;20070;-81
2022/11/15 07:03:16;;;;;;;6.07;1.10;;;15.20;82.30;;;;;;4990386;28;20448;-86
2022/11/15 07:06:19;;;;;;;2.60;0.95;;;15.40;82.50;;;;;;4985857;28;20060;-81
2022/11/15 07:09:22;;;;;;;3.25;0.90;;;15.50;82.50;;;;;;4989519;28;20045;-88
2022/11/15 07:12:25;;;;;;;1.80;0.93;;;15.60;82.60;;;;;;4980933;28;20088;-86
2022/11/15 07:15:28;;;;;;;2.72;0.90;;;15.60;82.60;;;;;;4982304;28;20115;-87
2022/11/15 07:18:42;;;;;;;4.97;2.03;;;15.60;82.60;;;;;;4986135;28;20049;-87
2022/11/15 07:21:46;;;;;;;4.85;1.15;;;15.60;82.70;;;;;;4985564;28;20136;-86
2022/11/15 07:24:50;;;;;;;4.15;0.98;;;15.50;82.60;;;;;;4986954;28;20122;-86
2022/11/15 07:28:00;;;;;;;3.42;0.68;;;15.50;82.70;;;;;;4980204;28;20053;-85
2022/11/15 07:31:08;;;;;;;0.55;0.43;;;15.50;82.80;;;;;;4978106;28;20508;-84
2022/11/15 07:34:11;;;;;;;1.60;0.57;;;15.50;82.80;;;;;;4979817;28;20037;-84
2022/11/15 07:37:14;;;;;;;1.25;0.47;;;15.40;82.70;;;;;;4978257;28;20556;-86
2022/11/15 07:40:17;;;;;;;2.13;0.73;;;15.40;82.70;;;;;;4969362;28;20041;-87
2022/11/15 07:43:20;;;;;;;2.90;0.50;;;15.40;82.70;;;;;;4973681;28;20045;-92
2022/11/15 07:46:23;;;;;;;1.37;0.53;;;15.40;82.80;;;;;;4974965;28;20126;-88
2022/11/15 07:49:26;;;;;;;2.42;0.50;;;15.30;82.60;;;;;;4977439;28;20815;-86
2022/11/15 07:52:29;;;;;;;1.33;0.40;;;15.30;82.60;;;;;;4985984;28;20041;-89
2022/11/15 07:55:32;;;;;;;0.68;0.40;;;15.30;82.60;;;;;;4980117;28;20049;-95
2022/11/15 07:58:35;;;;;;;1.42;0.40;;;15.30;82.70;;;;;;4978294;28;20045;-94
2022/11/15 08:01:39;;;;;;;1.30;0.47;;;15.40;82.80;;;;;;4976942;28;20053;-89
2022/11/15 08:04:42;;;;;;;1.23;0.55;;;15.30;82.60;;;;;;4989967;28;20120;-94
2022/11/15 08:07:45;;;;;;;1.35;0.38;;;15.30;82.60;;;;;;4987239;28;20065;-89
2022/11/15 08:10:48;;;;;;;0.75;0.40;;;15.30;82.50;;;;;;4986325;28;20520;-94
2022/11/15 08:13:51;;;;;;;1.67;0.50;;;15.30;82.50;;;;;;4987677;28;20046;-91
2022/11/15 08:16:55;;;;;;;3.72;0.82;;;15.30;82.50;;;;;;4976076;28;20073;-89
2022/11/15 08:19:58;;;;;;;1.25;0.35;;;15.30;82.50;;;;;;4985336;28;20473;-87
2022/11/15 08:23:02;;;;;;;;;;;15.30;82.50;;;;;;4976798;28;20130;-88
2022/11/15 08:26:06;;;;;;;1.95;0.50;;;15.30;82.50;;;;;;4975321;28;19944;-93
2022/11/15 08:29:09;;;;;;;;;;;15.20;82.20;;;;;;4983125;28;20065;-94
2022/11/15 08:32:13;;;;;;;1.70;0.37;;;15.20;82.20;;;;;;4989993;28;20127;-85
2022/11/15 08:35:17;;;;;;;2.63;0.50;;;15.20;82.20;;;;;;4985377;28;20049;-90
2022/11/15 08:38:20;;;;;;;2.88;0.40;;;15.20;82.20;;;;;;4985400;28;20446;-81
2022/11/15 08:41:27;;;;;;;1.85;0.43;;;15.20;82.20;;;;;;4977606;28;20150;-84
2022/11/15 08:44:31;;;;;;;1.60;0.68;;;15.10;82.00;;;;;;4982702;28;20045;-85
2022/11/15 08:47:35;;;;;;;3.92;0.73;;;15.10;82.00;;;;;;4976262;28;20096;-88
2022/11/15 08:50:38;;;;;;;1.98;0.47;;;15.00;81.90;;;;;;4979001;28;20065;-87
2022/11/15 08:53:42;;;;;;;1.55;0.50;;;15.00;82.40;;;;;;4979283;28;20104;-86
2022/11/15 08:56:45;;;;;;;2.38;0.80;;;15.00;81.90;;;;;;4981453;28;20347;-86
2022/11/15 08:59:48;;;;;;;3.13;1.08;;;15.00;81.90;;;;;;4984628;28;20092;-85
2022/11/15 09:02:51;;;;;;;0.80;0.80;;;15.00;81.90;;;;;;4982533;28;20073;-86
2022/11/15 09:05:59;;;;;;;0.40;0.32;;;15.00;81.90;;;;;;4978443;28;20037;-86
2022/11/15 09:09:03;;;;;;;1.38;0.55;;;14.90;81.60;;;;;;4976991;28;20413;-87
2022/11/15 09:12:07;;;;;;;1.58;0.55;;;14.90;81.50;;;;;;4975800;28;20128;-87
2022/11/15 09:15:10;;;;;;;1.73;0.82;;;14.90;81.40;;;;;;4977749;28;20050;-87
2022/11/15 09:18:13;;;;;;;3.08;0.60;;;14.90;81.40;;;;;;4972831;28;20033;-86
2022/11/15 09:21:16;;;;;;;1.95;0.70;;;14.80;81.10;;;;;;4981458;28;20065;-86
2022/11/15 09:24:19;;;;;;;2.55;0.77;;;14.80;81.10;;;;;;4985427;28;20429;-84
2022/11/15 09:27:26;;;;;;;;;;;14.80;81.00;;;;;;4985890;28;20056;-88
2022/11/15 09:30:30;;;;;;;2.38;0.70;;;14.70;80.80;;;;;;4969879;28;19957;-91
2022/11/15 09:33:33;;;;;;;4.45;1.33;;;14.70;80.80;;;;;;4982341;28;20077;-95
2022/11/15 09:36:36;;;;;;;;;;;14.60;80.70;;;;;;4977632;28;20058;-88
2022/11/15 09:39:40;;;;;;;4.72;1.00;;;14.60;80.70;;;;;;4979268;28;19917;-87
2022/11/15 09:43:21;;;;;;;3.88;0.68;;;14.60;80.70;;;;;;4983444;28;20080;-87
2022/11/15 09:46:44;;;;;;;3.05;0.73;;;14.50;80.50;;;;;;4982540;28;20048;-88
2022/11/15 09:49:53;;;;;;;2.55;1.00;;;14.50;80.40;;;;;;4983622;28;20146;-88
2022/11/15 09:52:45;;;;;;;2.58;0.70;;;14.50;80.40;;;;;;4966052;28;20046;-87
2022/11/15 09:55:50;;;;;;;4.10;0.80;;;14.50;80.40;;;;;;4983099;28;20100;-86
2022/11/15 09:58:35;;;;;;;3.25;1.35;;;14.50;80.30;;;;;;4974333;28;20077;-87
2022/11/15 10:01:49;;;;;;;2.53;1.08;;;14.50;80.30;;;;;;4978728;28;20049;-89
2022/11/15 10:04:36;;;;;;;2.40;0.75;;;14.50;80.10;;;;;;4987167;28;20037;-86
2022/11/15 10:07:39;;;;;;;2.55;0.90;;;14.50;80.10;;;;;;4986894;28;20118;-85
2022/11/15 10:10:44;;;;;;;1.90;0.98;;;14.50;80.00;;;;;;4986840;28;20044;-87
2022/11/15 10:13:35;;;;;;;4.30;1.13;;;14.50;80.00;;;;;;4987824;28;20081;-87
2022/11/15 10:16:28;;;;;;;2.60;1.08;;;14.50;79.90;;;;;;4972623;28;20042;-86
2022/11/15 10:19:35;;;;;;;;;;;14.50;79.80;;;;;;4984321;28;20037;-85
2022/11/15 10:22:39;;;;;;;4.45;1.10;;;14.60;79.90;;;;;;4983677;28;19917;-85
2022/11/15 10:25:26;;;;;;;5.03;1.30;;;14.60;79.70;;;;;;4981183;28;20254;-84
2022/11/15 10:28:27;;;;;;;3.50;1.38;;;14.60;79.50;;;;;;4984335;28;20094;-86
2022/11/15 10:31:24;;;;;;;5.32;2.17;;;14.60;79.50;;;;;;4982823;28;20041;-87
2022/11/15 10:34:14;;;;;;;2.88;0.93;;;14.70;79.60;;;;;;4985050;28;20123;-96
2022/11/15 10:37:03;;;;;;;5.70;1.67;;;14.70;79.40;;;;;;4980151;28;20042;-94
2022/11/15 10:40:06;;;;;;;2.67;1.48;;;14.70;79.30;;;;;;4982069;28;20041;-91
2022/11/15 10:43:09;;;;;;;3.70;1.60;;;14.80;79.20;;;;;;4975436;28;20363;-87
2022/11/15 10:45:53;;;;;;;3.88;1.55;;;14.80;79.10;;;;;;4969598;28;20107;-93
2022/11/15 10:48:38;;;;;;;9.88;3.10;;;14.90;79.40;;;;;;4982400;28;20176;-88
2022/11/15 10:51:28;;;;;;;2.97;1.40;;;14.90;78.90;;;;;;4981544;28;20525;-88
2022/11/15 10:54:16;;;;;;;3.80;1.15;;;15.00;79.00;;;;;;4987128;28;20085;-89
2022/11/15 10:57:08;;;;;;;4.72;1.85;;;15.00;78.90;;;;;;4976499;28;20524;-89
2022/11/15 10:59:55;;;;;;;6.18;2.65;;;15.10;78.90;;;;;;4985354;28;20053;-89
2022/11/15 11:02:55;;;;;;;6.65;1.98;;;15.20;78.90;;;;;;4986243;28;20138;-90
2022/11/15 11:05:40;;;;;;;5.75;1.63;;;15.30;78.80;;;;;;4994022;28;20064;-88
2022/11/15 11:08:25;;;;;;;4.43;1.52;;;15.40;78.70;;;;;;4987016;28;20259;-91
2022/11/15 11:11:10;;;;;;;4.35;1.98;;;15.40;78.50;;;;;;4987730;28;20446;-90
2022/11/15 11:13:54;;;;;;;3.65;1.30;;;15.50;78.50;;;;;;4972196;28;20048;-91
2022/11/15 11:16:48;;;;;;;4.35;1.65;;;15.60;78.50;;;;;;4976506;28;20270;-90
2022/11/15 11:20:10;;;;;;;6.15;2.13;;;15.60;78.20;;;;;;4979734;28;20161;-89
2022/11/15 11:23:22;;;;;;;4.32;1.67;;;15.80;78.30;;;;;;4969304;28;20046;-92
2022/11/15 11:26:35;;;;;;;2.30;1.20;;;15.80;78.10;;;;;;4974848;28;20108;-91
2022/11/15 11:29:32;;;;;;;2.60;1.23;;;15.90;78.10;;;;;;4978514;28;20037;-90
2022/11/15 11:32:30;;;;;;;2.92;1.38;;;15.90;78.00;;;;;;4986813;28;20124;-91
2022/11/15 11:35:19;;;;;;;4.57;1.20;;;16.00;77.90;;;;;;4987251;28;20045;-91
2022/11/15 11:38:22;;;;;;;3.92;1.27;;;16.10;78.00;;;;;;4994857;28;20140;-91
2022/11/15 11:41:28;;;;;;;2.92;1.58;;;16.20;77.80;;;;;;4975416;28;20473;-94
2022/11/15 11:44:45;;;;;;;4.18;1.23;;;16.30;77.60;;;;;;4976950;28;20149;-92
2022/11/15 11:47:39;;;;;;;3.08;1.10;;;16.40;77.60;;;;;;4980592;28;20120;-86
2022/11/15 11:50:27;;;;;;;4.03;1.58;;;16.50;77.70;;;;;;4976138;28;20133;-84
2022/11/15 11:53:25;;;;;;;3.53;0.98;;;16.50;77.60;;;;;;4984493;28;20042;-95
2022/11/15 11:56:23;;;;;;;5.25;1.38;;;16.60;77.60;;;;;;4984445;28;20142;-89
2022/11/15 11:59:25;;;;;;;4.15;1.10;;;16.60;77.30;;;;;;4986840;28;20073;-90
2022/11/15 12:02:36;;;;;;;4.28;1.20;;;16.70;77.30;;;;;;4988893;28;20128;-91
2022/11/15 12:05:48;;;;;;;4.78;1.25;;;16.80;77.20;;;;;;4978771;28;20054;-83
2022/11/15 12:08:44;;;;;;;3.22;1.20;;;16.80;76.90;;;;;;4973426;28;20121;-85
2022/11/15 12:11:57;;;;;;;5.53;2.13;;;16.90;76.90;;;;;;4980419;28;20100;-80
2022/11/15 12:14:50;;;;;;;3.60;1.52;;;16.90;76.70;;;;;;4969964;28;20112;-80
2022/11/15 12:17:35;;;;;;;6.00;1.50;;;17.00;76.60;;;;;;4981091;28;20044;-79
2022/11/15 12:20:23;;;;;;;6.60;1.10;;;16.90;76.30;;;;;;4983798;28;20108;-82
2022/11/15 12:23:22;;;;;;;5.88;1.30;;;17.00;76.30;;;;;;4984685;28;20041;-81
2022/11/15 12:26:24;;;;;;;3.63;1.17;;;16.90;75.90;;;;;;4982899;28;20142;-81
2022/11/15 12:29:19;;;;;;;4.03;0.82;;;16.90;75.80;;;;;;4984689;28;20037;-82
2022/11/15 12:32:04;;;;;;;5.53;1.50;;;16.80;75.50;;;;;;4984687;28;20129;-81
2022/11/15 12:34:50;;;;;;;5.95;1.35;;;16.80;75.40;;;;;;4977023;28;20046;-82
2022/11/15 12:37:40;;;;;;;8.25;3.67;;;16.70;75.20;;;;;;4980515;28;20045;-83
2022/11/15 12:40:32;;;;;;;4.93;1.40;;;16.70;75.00;;;;;;4983381;28;20044;-81
2022/11/15 12:43:16;;;;;;;5.80;2.92;;;16.70;74.90;;;;;;4983593;28;20045;-83
2022/11/15 12:46:10;;;;;;;6.60;1.88;;;16.70;74.80;;;;;;4979336;28;20074;-81
2022/11/15 12:48:54;;;;;;;;;;;16.80;74.70;;;;;;4970545;28;20046;-80
2022/11/15 12:51:47;;;;;;;8.50;2.70;;;16.80;74.60;;;;;;4983953;28;19924;-81
2022/11/15 12:54:41;;;;;;;5.65;1.63;;;16.80;74.40;;;;;;4984179;28;20075;-79
2022/11/15 12:57:31;;;;;;;9.05;2.35;;;16.90;74.40;;;;;;4980731;28;20125;-80
2022/11/15 13:00:22;;;;;;;8.55;2.20;;;16.90;74.20;;;;;;4982871;28;20132;-80
2022/11/15 13:03:24;;;;;;;7.70;1.90;;;16.90;74.10;;;;;;4971272;28;20049;-79
2022/11/15 13:06:30;;;;;;;7.10;2.00;;;16.90;73.70;;;;;;4987365;28;20523;-79
2022/11/15 13:09:36;;;;;;;4.93;1.63;;;17.00;73.90;;;;;;4986821;28;20104;-79
2022/11/15 13:12:26;;;;;;;6.32;2.63;;;17.00;73.40;;;;;;4993119;28;20068;-82
2022/11/15 13:15:18;;;;;;;6.25;1.73;;;17.00;73.30;;;;;;4989229;28;20073;-80
2022/11/15 13:18:27;;;;;;;8.60;3.15;;;17.00;73.10;;;;;;5003713;28;20045;-81
2022/11/15 13:24:27;;;;;;;7.88;3.33;;;16.90;72.50;;;;;;4992702;28;20053;-80
2022/11/15 13:27:19;;;;;;;6.32;1.85;;;17.00;72.80;;;;;;4985109;28;20749;-86
2022/11/15 13:30:04;;;;;;;6.75;1.92;;;16.90;72.30;;;;;;4985344;28;20037;-79
2022/11/15 13:32:51;;;;;;;9.93;3.67;;;16.90;72.40;;;;;;4986524;28;20133;-79
2022/11/15 13:35:39;;;;;;;5.85;2.28;;;16.90;72.30;;;;;;4984777;28;20037;-80
2022/11/15 13:38:24;;;;;;;6.10;1.90;;;16.80;72.10;;;;;;4985716;28;20128;-78
2022/11/15 13:41:22;;;;;;;7.05;2.17;;;16.90;72.30;;;;;;4979372;28;20134;-80
2022/11/15 13:44:20;;;;;;;5.57;2.40;;;16.80;71.90;;;;;;4976174;28;20065;-79
2022/11/15 13:47:18;;;;;;;9.27;2.35;;;16.80;71.70;;;;;;4972247;28;20065;-80
2022/11/15 13:50:03;;;;;;;7.50;2.65;;;16.70;71.60;;;;;;4981528;28;20050;-80
2022/11/15 13:52:48;;;;;;;10.10;2.30;;;16.70;71.70;;;;;;4976216;28;20264;-80
2022/11/15 13:55:33;;;;;;;6.57;1.75;;;16.60;71.60;;;;;;4984922;28;20042;-81
2022/11/15 13:58:19;;;;;;;14.07;3.58;;;16.60;71.60;;;;;;4971767;28;20092;-81
2022/11/15 14:01:05;;;;;;;6.13;2.50;;;16.50;71.40;;;;;;4983199;28;20455;-87
2022/11/15 14:03:56;;;;;;;5.68;1.90;;;16.50;71.40;;;;;;4986259;28;20168;-79
2022/11/15 14:06:48;;;;;;;6.18;2.55;;;16.40;71.20;;;;;;4975310;28;20541;-82
2022/11/15 14:09:37;;;;;;;6.72;2.60;;;16.40;71.20;;;;;;4982942;28;20057;-81
2022/11/15 14:12:29;;;;;;;6.32;1.70;;;16.40;71.70;;;;;;4984927;28;20348;-81
2022/11/15 14:15:34;;;;;;;5.43;2.00;;;16.30;71.00;;;;;;4977074;28;20571;-80
2022/11/15 14:18:47;;;;;;;3.35;1.58;;;16.40;71.10;;;;;;4973860;28;20512;-81
2022/11/15 14:21:32;;;;;;;;;;;16.40;71.10;;;;;;4973533;28;20038;-81
2022/11/15 14:24:21;;;;;;;5.78;1.83;;;16.30;71.20;;;;;;4983051;28;20441;-81
2022/11/15 14:27:27;;;;;;;4.95;1.50;;;16.40;71.40;;;;;;4986614;28;20513;-79
2022/11/15 14:30:18;;;;;;;7.93;2.40;;;16.40;71.30;;;;;;4986373;28;20410;-80
2022/11/15 14:33:25;;;;;;;5.53;2.00;;;16.30;71.20;;;;;;4981715;28;20041;-79
2022/11/15 14:36:15;;;;;;;5.20;1.92;;;16.30;71.20;;;;;;5001668;28;20030;-89
2022/11/15 14:39:01;;;;;;;6.80;1.67;;;16.20;71.10;;;;;;4999262;28;20104;-88
2022/11/15 14:41:45;;;;;;;5.40;2.45;;;16.20;71.30;;;;;;4986360;28;20092;-92
2022/11/15 14:44:29;;;;;;;8.50;2.03;;;16.10;71.80;;;;;;4985760;28;20109;-89
2022/11/15 14:47:14;;;;;;;7.00;2.17;;;16.10;71.40;;;;;;4975036;28;20146;-88
2022/11/15 14:49:58;;;;;;;4.38;1.40;;;16.00;71.40;;;;;;4986378;28;20362;-85
2022/11/15 14:52:43;;;;;;;6.30;2.67;;;15.90;71.40;;;;;;4987463;28;20551;-81
2022/11/15 14:55:32;;;;;;;4.63;1.30;;;15.90;71.50;;;;;;4986959;28;20500;-81
2022/11/15 14:58:16;;;;;;;6.38;2.30;;;15.90;71.50;;;;;;4984108;28;20239;-81
2022/11/15 15:01:09;;;;;;;4.80;1.38;;;15.80;71.40;;;;;;4987937;28;20134;-84
2022/11/15 15:03:56;;;;;;;10.00;2.20;;;15.80;71.50;;;;;;4981529;28;20260;-85
2022/11/15 15:06:41;;;;;;;5.30;1.83;;;15.70;71.50;;;;;;4977376;28;20606;-80
2022/11/15 15:09:25;;;;;;;6.22;1.42;;;15.60;71.40;;;;;;4986458;28;20505;-81
2022/11/15 15:12:16;;;;;;;5.88;1.88;;;15.50;71.40;;;;;;4982837;28;20425;-81
2022/11/15 15:15:01;;;;;;;4.75;1.83;;;15.40;71.40;;;;;;4977788;28;20038;-82
2022/11/15 15:17:45;;;;;;;3.78;2.08;;;15.40;71.70;;;;;;4974403;28;20402;-82
2022/11/15 15:20:31;;;;;;;6.82;1.92;;;15.30;71.60;;;;;;4981090;28;20041;-90
2022/11/15 15:23:18;;;;;;;4.75;1.40;;;15.30;71.70;;;;;;4990136;28;20048;-92
2022/11/15 15:26:03;;;;;;;5.40;2.35;;;15.20;71.70;;;;;;4983879;28;20062;-83
2022/11/15 15:28:48;;;;;;;5.32;1.95;;;15.20;71.80;;;;;;4982251;28;20149;-81
2022/11/15 15:31:32;;;;;;;6.63;2.42;;;15.10;71.70;;;;;;4986754;28;20053;-82
2022/11/15 15:34:17;;;;;;;3.97;1.45;;;15.10;71.90;;;;;;4986158;28;20097;-83
2022/11/15 15:37:37;;;;;;;5.70;1.33;;;15.10;71.90;;;;;;4977940;28;20097;-83
2022/11/15 15:40:23;;;;;;;4.75;1.60;;;15.00;71.80;;;;;;4983287;28;20038;-81
2022/11/15 15:43:08;;;;;;;3.83;0.98;;;15.00;72.00;;;;;;4985998;28;20053;-82
2022/11/15 15:45:53;;;;;;;4.28;1.67;;;15.00;72.00;;;;;;4980475;28;20144;-82
2022/11/15 15:48:39;;;;;;;4.50;1.60;;;15.00;72.10;;;;;;4985324;28;20504;-82
2022/11/15 15:51:23;;;;;;;15.13;3.42;;;14.90;72.00;;;;;;4974230;28;20045;-83
2022/11/15 15:54:07;;;;;;;12.40;3.05;;;14.90;72.20;;;;;;4987215;28;20049;-83
2022/11/15 15:56:52;;;;;;;9.32;2.55;;;14.80;72.80;;;;;;4983671;28;20069;-82
2022/11/15 15:59:37;;;;;;;8.77;3.50;;;14.80;72.40;;;;;;4987136;28;20081;-79